createdAt,value
2023-11-07T00:00:50.198Z,89.41
2023-11-07T00:01:51.860Z,89.82
2023-11-07T00:02:55.014Z,90.74
2023-11-07T00:03:57.760Z,89.81
2023-11-07T00:04:59.935Z,90.02
2023-11-07T00:06:01.535Z,89.15
2023-11-07T00:07:03.768Z,89.39
2023-11-07T00:08:05.242Z,89.10
2023-11-07T00:09:06.839Z,89.45
2023-11-07T00:10:09.129Z,89.58
2023-11-07T00:11:10.601Z,89.82
2023-11-07T00:12:12.629Z,89.33
2023-11-07T00:13:14.145Z,89.32
2023-11-07T00:14:15.600Z,89.73
2023-11-07T00:15:17.925Z,89.80
2023-11-07T00:16:19.390Z,89.62
2023-11-07T00:17:22.159Z,89.23
2023-11-07T00:18:23.771Z,89.79
2023-11-07T00:19:28.023Z,90.04
2023-11-07T00:20:29.504Z,89.40
2023-11-07T00:21:31.074Z,89.69
2023-11-07T00:22:32.809Z,90.09
2023-11-07T00:23:34.410Z,90.17
2023-11-07T00:24:36.000Z,90.45
2023-11-07T00:25:37.584Z,90.27
2023-11-07T00:26:39.037Z,91.11
2023-11-07T00:27:40.859Z,91.39
2023-11-07T00:28:42.318Z,91.13
2023-11-07T00:29:46.166Z,91.28
2023-11-07T00:30:49.126Z,91.09
2023-11-07T00:31:53.702Z,91.62
2023-11-07T00:32:55.281Z,91.67
2023-11-07T00:33:56.945Z,91.52
2023-11-07T00:34:58.999Z,91.71
2023-11-07T00:36:00.388Z,91.67
2023-11-07T00:37:01.909Z,91.55
2023-11-07T00:38:05.416Z,91.81
2023-11-07T00:39:07.981Z,92.39
2023-11-07T00:40:10.899Z,92.57
2023-11-07T00:41:14.308Z,92.06
2023-11-07T00:42:15.786Z,92.04
2023-11-07T00:43:18.517Z,91.84
2023-11-07T00:44:20.003Z,91.77
2023-11-07T00:45:21.501Z,91.42
2023-11-07T00:46:23.124Z,91.49
2023-11-07T00:47:24.620Z,91.70
2023-11-07T00:48:26.278Z,92.10
2023-11-07T00:49:28.560Z,92.33
2023-11-07T00:50:30.056Z,92.20
2023-11-07T00:51:31.788Z,92.49
2023-11-07T00:52:33.241Z,92.49
2023-11-07T00:53:34.745Z,92.07
2023-11-07T00:54:36.228Z,92.73
2023-11-07T00:55:37.693Z,92.61
2023-11-07T00:56:39.206Z,92.72
2023-11-07T00:57:40.668Z,92.71
2023-11-07T00:58:42.110Z,92.80
2023-11-07T00:59:43.622Z,92.81
2023-11-07T01:00:46.167Z,92.98
2023-11-07T01:01:47.651Z,92.96
2023-11-07T01:02:49.440Z,93.70
2023-11-07T01:03:51.174Z,92.74
2023-11-07T01:04:53.407Z,93.24
2023-11-07T01:05:55.616Z,93.66
2023-11-07T01:06:57.551Z,93.37
2023-11-07T01:07:59.077Z,93.82
2023-11-07T01:09:00.534Z,93.87
2023-11-07T01:10:02.027Z,93.93
2023-11-07T01:11:04.404Z,94.26
2023-11-07T01:12:06.597Z,94.83
2023-11-07T01:13:08.721Z,94.45
2023-11-07T01:14:10.217Z,94.57
2023-11-07T01:15:11.741Z,94.55
2023-11-07T01:16:13.525Z,94.86
2023-11-07T01:17:15.015Z,95.08
2023-11-07T01:18:16.813Z,95.25
2023-11-07T01:19:18.528Z,95.63
2023-11-07T01:20:20.159Z,95.14
2023-11-07T01:21:21.598Z,95.19
2023-11-07T01:22:23.017Z,94.96
2023-11-07T01:23:24.490Z,95.12
2023-11-07T01:24:25.924Z,95.07
2023-11-07T01:25:28.709Z,95.16
2023-11-07T01:26:30.282Z,94.96
2023-11-07T01:27:32.466Z,94.79
2023-11-07T01:28:33.937Z,95.50
2023-11-07T01:29:35.541Z,95.24
2023-11-07T01:30:37.040Z,96.04
2023-11-07T01:31:38.467Z,95.65
2023-11-07T01:32:42.424Z,95.66
2023-11-07T01:33:44.007Z,96.40
2023-11-07T01:34:45.573Z,96.69
2023-11-07T01:35:47.058Z,96.32
2023-11-07T01:36:48.957Z,96.57
2023-11-07T01:37:52.176Z,97.23
2023-11-07T01:38:54.740Z,96.73
2023-11-07T01:39:56.307Z,96.80
2023-11-07T01:40:57.740Z,97.26
2023-11-07T01:41:59.298Z,97.08
2023-11-07T01:43:14.954Z,97.20
2023-11-07T01:44:16.420Z,97.42
2023-11-07T01:45:18.500Z,97.20
2023-11-07T01:46:19.861Z,97.53
2023-11-07T01:47:24.824Z,98.14
2023-11-07T01:48:27.306Z,97.95
2023-11-07T01:49:29.086Z,98.18
2023-11-07T01:50:30.877Z,98.15
2023-11-07T01:51:32.574Z,98.14
2023-11-07T01:52:35.771Z,98.50
2023-11-07T01:53:37.378Z,98.36
2023-11-07T01:54:39.446Z,99.01
2023-11-07T01:55:41.716Z,98.59
2023-11-07T01:56:44.344Z,98.71
2023-11-07T01:57:47.216Z,98.37
2023-11-07T01:58:49.327Z,98.91
2023-11-07T01:59:50.832Z,99.36
2023-11-07T02:00:54.693Z,99.90
2023-11-07T02:01:59.817Z,99.33
2023-11-07T02:03:01.377Z,98.45
2023-11-07T02:04:04.151Z,99.06
2023-11-07T02:05:08.079Z,98.34
2023-11-07T02:06:09.754Z,99.03
2023-11-07T02:07:11.303Z,98.39
2023-11-07T02:08:12.911Z,98.02
2023-11-07T02:09:14.386Z,98.37
2023-11-07T02:10:16.009Z,97.84
2023-11-07T02:11:17.519Z,98.05
2023-11-07T02:12:18.974Z,98.12
2023-11-07T02:13:20.487Z,98.42
2023-11-07T02:14:36.768Z,98.38
2023-11-07T02:15:39.187Z,97.83
2023-11-07T02:16:40.644Z,98.16
2023-11-07T02:17:42.199Z,98.35
2023-11-07T02:18:43.846Z,98.37
2023-11-07T02:19:45.362Z,98.29
2023-11-07T02:20:47.239Z,98.09
2023-11-07T02:21:52.306Z,98.32
2023-11-07T02:23:00.832Z,97.80
2023-11-07T02:24:02.450Z,98.39
2023-11-07T02:25:04.189Z,98.25
2023-11-07T02:26:05.660Z,97.85
2023-11-07T02:27:07.871Z,98.02
2023-11-07T02:28:09.776Z,98.10
2023-11-07T02:29:11.264Z,98.86
2023-11-07T02:30:13.915Z,98.08
2023-11-07T02:31:15.428Z,98.51
2023-11-07T02:32:16.882Z,98.11
2023-11-07T02:33:21.126Z,98.08
2023-11-07T02:34:22.757Z,97.34
2023-11-07T02:35:24.888Z,98.27
2023-11-07T02:36:26.335Z,98.14
2023-11-07T02:37:27.798Z,98.40
2023-11-07T02:38:30.115Z,98.00
2023-11-07T02:39:31.744Z,96.99
2023-11-07T02:40:33.190Z,97.29
2023-11-07T02:41:35.289Z,97.87
2023-11-07T02:42:36.975Z,98.13
2023-11-07T02:43:38.768Z,97.89
2023-11-07T02:44:40.239Z,98.14
2023-11-07T02:45:41.707Z,97.61
2023-11-07T02:46:43.158Z,97.85
2023-11-07T02:47:44.697Z,97.75
2023-11-07T02:48:46.378Z,97.62
2023-11-07T02:49:47.916Z,97.83
2023-11-07T02:50:49.452Z,97.76
2023-11-07T02:51:50.958Z,98.16
2023-11-07T02:52:52.645Z,97.73
2023-11-07T02:53:54.472Z,97.44
2023-11-07T02:54:56.105Z,97.52
2023-11-07T02:55:57.522Z,97.74
2023-11-07T02:56:59.053Z,97.37
2023-11-07T02:58:00.903Z,98.04
2023-11-07T02:59:02.612Z,98.56
2023-11-07T03:00:05.353Z,98.15
2023-11-07T03:01:07.224Z,97.83
2023-11-07T03:02:08.899Z,97.84
2023-11-07T03:03:10.998Z,98.53
2023-11-07T03:04:12.949Z,98.76
2023-11-07T03:05:14.541Z,99.48
2023-11-07T03:06:16.444Z,99.09
2023-11-07T03:07:18.153Z,98.44
2023-11-07T03:08:19.669Z,98.13
2023-11-07T03:09:21.225Z,98.52
2023-11-07T03:10:22.773Z,98.21
2023-11-07T03:11:24.243Z,97.97
2023-11-07T03:12:26.607Z,98.06
2023-11-07T03:13:28.249Z,98.31
2023-11-07T03:14:29.854Z,98.25
2023-11-07T03:15:31.672Z,98.44
2023-11-07T03:16:35.081Z,98.06
2023-11-07T03:17:36.728Z,98.62
2023-11-07T03:18:38.828Z,99.34
2023-11-07T03:19:40.311Z,99.29
2023-11-07T03:20:42.206Z,98.88
2023-11-07T03:21:43.675Z,99.02
2023-11-07T03:22:45.121Z,98.96
2023-11-07T03:23:46.633Z,98.64
2023-11-07T03:24:48.882Z,98.86
2023-11-07T03:25:50.478Z,97.85
2023-11-07T03:26:51.969Z,98.53
2023-11-07T03:27:53.416Z,99.44
2023-11-07T03:28:54.902Z,98.87
2023-11-07T03:29:56.427Z,99.11
2023-11-07T03:31:00.688Z,98.32
2023-11-07T03:32:02.142Z,98.97
2023-11-07T03:33:03.825Z,98.81
2023-11-07T03:34:05.607Z,98.69
2023-11-07T03:35:07.755Z,99.07
2023-11-07T03:36:09.482Z,98.29
2023-11-07T03:37:11.004Z,97.95
2023-11-07T03:38:12.453Z,98.06
2023-11-07T03:39:14.044Z,99.07
2023-11-07T03:40:15.795Z,99.14
2023-11-07T03:41:17.857Z,98.36
2023-11-07T03:42:19.668Z,99.58
2023-11-07T03:43:23.715Z,99.57
2023-11-07T03:44:25.321Z,99.72
2023-11-07T03:45:26.776Z,99.86
2023-11-07T03:46:28.279Z,100.00
2023-11-07T03:47:30.809Z,100.00
2023-11-07T03:48:32.454Z,100.00
2023-11-07T03:49:34.479Z,100.00
2023-11-07T03:50:36.753Z,100.00
2023-11-07T03:51:38.279Z,100.00
2023-11-07T03:52:39.757Z,100.00
2023-11-07T03:53:41.290Z,100.00
2023-11-07T03:54:42.731Z,100.00
2023-11-07T03:55:44.165Z,100.00
2023-11-07T03:56:49.300Z,100.00
2023-11-07T03:57:50.941Z,100.00
2023-11-07T03:58:52.515Z,100.00
2023-11-07T03:59:54.076Z,100.00
2023-11-07T04:00:55.570Z,100.00
2023-11-07T04:01:57.757Z,100.00
2023-11-07T04:02:59.305Z,100.00
2023-11-07T04:04:00.919Z,100.00
2023-11-07T04:05:02.558Z,100.00
2023-11-07T04:06:04.329Z,100.00
2023-11-07T04:07:05.819Z,100.00
2023-11-07T04:08:07.257Z,100.00
2023-11-07T04:09:08.972Z,100.00
2023-11-07T04:10:10.880Z,100.00
2023-11-07T04:11:12.376Z,100.00
2023-11-07T04:12:13.823Z,100.00
2023-11-07T04:13:15.332Z,100.00
2023-11-07T04:14:19.003Z,100.00
2023-11-07T04:15:23.481Z,100.00
2023-11-07T04:16:25.111Z,100.00
2023-11-07T04:17:26.636Z,100.00
2023-11-07T04:18:28.305Z,100.00
2023-11-07T04:19:29.817Z,100.00
2023-11-07T04:20:34.165Z,100.00
2023-11-07T04:21:36.923Z,100.00
2023-11-07T04:22:38.933Z,100.00
2023-11-07T04:23:41.270Z,100.00
2023-11-07T04:24:43.231Z,100.00
2023-11-07T04:25:45.274Z,100.00
2023-11-07T04:26:46.683Z,100.00
2023-11-07T04:27:48.679Z,100.00
2023-11-07T04:28:50.165Z,100.00
2023-11-07T04:29:51.716Z,100.00
2023-11-07T04:30:56.228Z,100.00
2023-11-07T04:31:57.729Z,100.00
2023-11-07T04:32:59.248Z,100.00
2023-11-07T04:34:00.869Z,100.00
2023-11-07T04:35:04.082Z,100.00
2023-11-07T04:36:06.905Z,100.00
2023-11-07T04:37:08.494Z,100.00
2023-11-07T04:38:10.046Z,100.00
2023-11-07T04:39:11.864Z,100.00
2023-11-07T04:40:14.066Z,100.00
2023-11-07T04:41:15.537Z,100.00
2023-11-07T04:42:16.994Z,100.00
2023-11-07T04:43:18.487Z,100.00
2023-11-07T04:44:21.269Z,100.00
2023-11-07T04:45:23.144Z,100.00
2023-11-07T04:46:24.706Z,100.00
2023-11-07T04:47:26.160Z,100.00
2023-11-07T04:48:28.062Z,100.00
2023-11-07T04:49:31.079Z,100.00
2023-11-07T04:50:34.589Z,100.00
2023-11-07T04:51:37.440Z,100.00
2023-11-07T04:52:39.052Z,100.00
2023-11-07T04:53:41.013Z,100.00
2023-11-07T04:54:42.525Z,100.00
2023-11-07T04:55:45.127Z,100.00
2023-11-07T04:56:46.740Z,100.00
2023-11-07T04:57:48.313Z,100.00
2023-11-07T04:58:57.255Z,100.00
2023-11-07T05:00:00.390Z,100.00
2023-11-07T05:01:03.130Z,100.00
2023-11-07T05:02:07.260Z,100.00
2023-11-07T05:03:10.268Z,100.00
2023-11-07T05:04:11.863Z,100.00
2023-11-07T05:05:15.653Z,100.00
2023-11-07T05:06:20.524Z,100.00
2023-11-07T05:07:22.233Z,100.00
2023-11-07T05:08:23.674Z,100.00
2023-11-07T05:09:26.554Z,100.00
2023-11-07T05:10:28.036Z,100.00
2023-11-07T05:11:29.533Z,100.00
2023-11-07T05:12:31.841Z,100.00
2023-11-07T05:13:33.339Z,100.00
2023-11-07T05:14:34.868Z,100.00
2023-11-07T05:15:36.349Z,100.00
2023-11-07T05:16:38.806Z,100.00
2023-11-07T05:17:41.004Z,100.00
2023-11-07T05:18:42.663Z,100.00
2023-11-07T05:19:44.196Z,100.00
2023-11-07T05:20:46.725Z,100.00
2023-11-07T05:21:48.271Z,100.00
2023-11-07T05:22:49.769Z,100.00
2023-11-07T05:23:51.282Z,100.00
2023-11-07T05:24:52.768Z,100.00
2023-11-07T05:25:54.312Z,100.00
2023-11-07T05:26:55.892Z,100.00
2023-11-07T05:27:57.399Z,100.00
2023-11-07T05:29:00.717Z,100.00
2023-11-07T05:30:02.236Z,100.00
2023-11-07T05:31:04.876Z,100.00
2023-11-07T05:32:06.668Z,100.00
2023-11-07T05:33:08.408Z,100.00
2023-11-07T05:34:10.054Z,100.00
2023-11-07T05:35:11.569Z,100.00
2023-11-07T05:36:17.063Z,100.00
2023-11-07T05:37:18.930Z,100.00
2023-11-07T05:38:21.866Z,100.00
2023-11-07T05:39:28.478Z,100.00
2023-11-07T05:40:30.035Z,100.00
2023-11-07T05:41:31.530Z,100.00
2023-11-07T05:42:32.985Z,100.00
2023-11-07T05:43:34.447Z,100.00
2023-11-07T05:44:35.997Z,100.00
2023-11-07T05:45:37.458Z,100.00
2023-11-07T05:46:38.927Z,100.00
2023-11-07T05:47:42.202Z,100.00
2023-11-07T05:48:43.951Z,100.00
2023-11-07T05:49:46.770Z,100.00
2023-11-07T05:50:48.463Z,100.00
2023-11-07T05:51:49.949Z,100.00
2023-11-07T05:52:51.398Z,100.00
2023-11-07T05:53:52.909Z,100.00
2023-11-07T05:54:54.805Z,100.00
2023-11-07T05:55:57.060Z,100.00
2023-11-07T05:56:58.699Z,100.00
2023-11-07T05:58:00.197Z,100.00
2023-11-07T05:59:01.980Z,100.00
2023-11-07T06:00:07.644Z,100.00
2023-11-07T06:01:09.218Z,100.00
2023-11-07T06:02:11.825Z,100.00
2023-11-07T06:03:14.656Z,100.00
2023-11-07T06:04:34.454Z,100.00
2023-11-07T06:05:36.441Z,100.00
2023-11-07T06:06:37.912Z,100.00
2023-11-07T06:07:39.540Z,100.00
2023-11-07T06:08:41.126Z,100.00
2023-11-07T06:09:42.605Z,100.00
2023-11-07T06:10:44.344Z,100.00
2023-11-07T06:11:45.849Z,100.00
2023-11-07T06:12:47.299Z,100.00
2023-11-07T06:13:48.761Z,100.00
2023-11-07T06:14:50.288Z,100.00
2023-11-07T06:15:51.818Z,100.00
2023-11-07T06:16:55.855Z,100.00
2023-11-07T06:17:57.855Z,100.00
2023-11-07T06:18:59.300Z,100.00
2023-11-07T06:20:01.075Z,100.00
2023-11-07T06:21:02.651Z,100.00
2023-11-07T06:22:04.737Z,100.00
2023-11-07T06:23:06.744Z,100.00
2023-11-07T06:24:08.577Z,100.00
2023-11-07T06:25:12.002Z,100.00
2023-11-07T06:26:13.471Z,100.00
2023-11-07T06:27:15.197Z,100.00
2023-11-07T06:28:16.908Z,100.00
2023-11-07T06:29:18.362Z,100.00
2023-11-07T06:30:22.069Z,100.00
2023-11-07T06:31:27.882Z,100.00
2023-11-07T06:32:29.394Z,100.00
2023-11-07T06:33:30.993Z,100.00
2023-11-07T06:34:32.849Z,100.00
2023-11-07T06:35:34.849Z,100.00
2023-11-07T06:36:36.285Z,100.00
2023-11-07T06:37:37.724Z,100.00
2023-11-07T06:38:39.508Z,100.00
2023-11-07T06:39:41.004Z,100.00
2023-11-07T06:40:42.491Z,100.00
2023-11-07T06:41:44.102Z,100.00
2023-11-07T06:42:46.973Z,100.00
2023-11-07T06:43:49.562Z,100.00
2023-11-07T06:44:50.999Z,100.00
2023-11-07T06:45:52.533Z,100.00
2023-11-07T06:46:54.667Z,100.00
2023-11-07T06:47:56.359Z,100.00
2023-11-07T06:48:59.487Z,100.00
2023-11-07T06:50:02.692Z,100.00
2023-11-07T06:51:04.373Z,100.00
2023-11-07T06:52:06.872Z,100.00
2023-11-07T06:53:08.556Z,100.00
2023-11-07T06:54:10.356Z,100.00
2023-11-07T06:55:14.279Z,100.00
2023-11-07T06:56:16.334Z,100.00
2023-11-07T06:57:17.761Z,100.00
2023-11-07T06:58:19.242Z,100.00
2023-11-07T06:59:20.766Z,100.00
2023-11-07T07:00:26.078Z,100.00
2023-11-07T07:01:29.215Z,100.00
2023-11-07T07:02:30.717Z,100.00
2023-11-07T07:03:32.365Z,100.00
2023-11-07T07:04:34.657Z,100.00
2023-11-07T07:05:36.261Z,100.00
2023-11-07T07:06:38.220Z,100.00
2023-11-07T07:07:41.516Z,100.00
2023-11-07T07:08:43.022Z,100.00
2023-11-07T07:09:44.443Z,100.00
2023-11-07T07:10:46.084Z,100.00
2023-11-07T07:11:48.777Z,100.00
2023-11-07T07:12:50.371Z,100.00
2023-11-07T07:13:53.645Z,100.00
2023-11-07T07:14:55.694Z,100.00
2023-11-07T07:15:57.483Z,100.00
2023-11-07T07:17:02.553Z,100.00
2023-11-07T07:18:07.019Z,100.00
2023-11-07T07:19:09.606Z,100.00
2023-11-07T07:20:14.696Z,100.00
2023-11-07T07:21:17.500Z,100.00
2023-11-07T07:22:19.168Z,100.00
2023-11-07T07:23:25.407Z,100.00
2023-11-07T07:24:28.631Z,100.00
2023-11-07T07:25:30.195Z,100.00
2023-11-07T07:26:31.725Z,100.00
2023-11-07T07:27:35.083Z,100.00
2023-11-07T07:28:40.083Z,100.00
2023-11-07T07:29:42.178Z,100.00
2023-11-07T07:30:46.514Z,100.00
2023-11-07T07:31:47.990Z,100.00
2023-11-07T07:32:49.528Z,100.00
2023-11-07T07:33:53.483Z,100.00
2023-11-07T07:34:54.973Z,100.00
2023-11-07T07:36:03.963Z,100.00
2023-11-07T07:37:07.495Z,100.00
2023-11-07T07:38:10.245Z,100.00
2023-11-07T07:39:28.989Z,100.00
2023-11-07T07:40:32.344Z,100.00
2023-11-07T07:41:33.869Z,100.00
2023-11-07T07:42:37.077Z,100.00
2023-11-07T07:43:39.862Z,100.00
2023-11-07T07:44:41.496Z,99.87
2023-11-07T07:45:43.894Z,99.33
2023-11-07T07:46:45.800Z,99.27
2023-11-07T07:47:47.810Z,97.73
2023-11-07T07:48:50.028Z,98.01
2023-11-07T07:49:51.649Z,97.76
2023-11-07T07:50:53.242Z,97.14
2023-11-07T07:51:55.436Z,97.65
2023-11-07T07:52:57.493Z,97.04
2023-11-07T07:53:59.088Z,97.25
2023-11-07T07:55:10.043Z,96.98
2023-11-07T07:56:17.952Z,96.41
2023-11-07T07:57:19.606Z,96.06
2023-11-07T07:58:21.157Z,96.25
2023-11-07T07:59:25.961Z,96.07
2023-11-07T08:00:32.369Z,96.71
2023-11-07T08:01:36.700Z,96.08
2023-11-07T08:02:39.860Z,96.66
2023-11-07T08:03:42.484Z,96.00
2023-11-07T08:04:44.027Z,95.73
2023-11-07T08:05:46.009Z,95.66
2023-11-07T08:06:48.152Z,95.80
2023-11-07T08:07:49.995Z,95.61
2023-11-07T08:08:51.504Z,95.42
2023-11-07T08:09:53.053Z,95.40
2023-11-07T08:11:01.581Z,94.37
2023-11-07T08:12:09.567Z,95.05
2023-11-07T08:13:11.647Z,94.71
2023-11-07T08:14:13.533Z,94.25
2023-11-07T08:15:15.035Z,94.87
2023-11-07T08:16:16.516Z,94.82
2023-11-07T08:17:18.608Z,94.77
2023-11-07T08:18:20.311Z,93.81
2023-11-07T08:19:23.526Z,94.22
2023-11-07T08:20:25.925Z,94.00
2023-11-07T08:21:27.399Z,93.88
2023-11-07T08:22:28.878Z,93.07
2023-11-07T08:23:30.393Z,92.19
2023-11-07T08:24:31.921Z,92.18
2023-11-07T08:25:34.148Z,92.06
2023-11-07T08:26:36.946Z,92.32
2023-11-07T08:27:40.115Z,91.88
2023-11-07T08:28:44.749Z,91.60
2023-11-07T08:29:46.220Z,91.29
2023-11-07T08:30:48.176Z,91.34
2023-11-07T08:31:49.629Z,90.39
2023-11-07T08:32:52.254Z,89.85
2023-11-07T08:33:53.997Z,90.22
2023-11-07T08:34:55.522Z,89.68
2023-11-07T08:35:57.930Z,89.16
2023-11-07T08:37:07.189Z,90.14
2023-11-07T08:38:13.076Z,88.53
2023-11-07T08:39:25.486Z,88.14
2023-11-07T08:40:27.061Z,88.17
2023-11-07T08:41:28.560Z,87.05
2023-11-07T08:42:32.035Z,87.93
2023-11-07T08:43:33.670Z,87.10
2023-11-07T08:44:35.386Z,86.99
2023-11-07T08:45:36.952Z,87.31
2023-11-07T08:46:38.427Z,87.60
2023-11-07T08:47:39.968Z,87.65
2023-11-07T08:48:45.666Z,87.21
2023-11-07T08:49:47.428Z,86.95
2023-11-07T08:50:49.028Z,86.75
2023-11-07T08:51:53.407Z,86.53
2023-11-07T08:52:55.197Z,86.11
2023-11-07T08:53:57.675Z,85.67
2023-11-07T08:55:02.737Z,87.50
2023-11-07T08:56:04.569Z,85.46
2023-11-07T08:57:06.179Z,85.66
2023-11-07T08:58:07.721Z,85.81
2023-11-07T08:59:09.629Z,84.97
2023-11-07T09:00:22.486Z,85.92
2023-11-07T09:01:24.820Z,85.36
2023-11-07T09:02:26.390Z,85.48
2023-11-07T09:03:28.624Z,86.58
2023-11-07T09:04:30.144Z,86.48
2023-11-07T09:05:32.070Z,86.62
2023-11-07T09:06:33.624Z,84.30
2023-11-07T09:07:36.322Z,85.90
2023-11-07T09:08:37.968Z,83.42
2023-11-07T09:09:40.850Z,84.64
2023-11-07T09:10:42.308Z,85.03
2023-11-07T09:11:44.776Z,83.31
2023-11-07T09:12:46.421Z,83.05
2023-11-07T09:13:47.868Z,82.25
2023-11-07T09:14:49.441Z,82.59
2023-11-07T09:15:50.924Z,82.02
2023-11-07T09:16:53.836Z,83.52
2023-11-07T09:17:55.398Z,81.53
2023-11-07T09:18:57.044Z,81.34
2023-11-07T09:19:58.701Z,83.02
2023-11-07T09:21:00.370Z,81.21
2023-11-07T09:22:02.272Z,81.40
2023-11-07T09:23:04.922Z,80.74
2023-11-07T09:24:06.894Z,81.02
2023-11-07T09:25:09.078Z,82.04
2023-11-07T09:26:10.513Z,80.68
2023-11-07T09:27:12.318Z,80.22
2023-11-07T09:28:14.099Z,80.90
2023-11-07T09:29:17.714Z,79.96
2023-11-07T09:30:19.476Z,80.38
2023-11-07T09:31:20.952Z,78.62
2023-11-07T09:32:23.436Z,79.52
2023-11-07T09:33:25.000Z,78.54
2023-11-07T09:34:26.681Z,77.77
2023-11-07T09:35:28.385Z,78.23
2023-11-07T09:36:31.289Z,76.57
2023-11-07T09:37:34.463Z,76.95
2023-11-07T09:38:46.944Z,76.28
2023-11-07T09:39:55.131Z,76.19
2023-11-07T09:40:58.076Z,76.13
2023-11-07T09:42:00.044Z,78.55
2023-11-07T09:43:03.200Z,77.53
2023-11-07T09:44:05.149Z,76.42
2023-11-07T09:45:10.785Z,76.04
2023-11-07T09:46:12.978Z,75.84
2023-11-07T09:47:14.662Z,76.72
2023-11-07T09:48:19.420Z,76.01
2023-11-07T09:49:21.085Z,73.64
2023-11-07T09:50:23.430Z,74.19
2023-11-07T09:51:26.867Z,73.64
2023-11-07T09:52:29.005Z,73.62
2023-11-07T09:53:31.791Z,75.34
2023-11-07T09:54:34.845Z,73.06
2023-11-07T09:55:39.035Z,74.48
2023-11-07T09:56:41.315Z,75.14
2023-11-07T09:57:43.823Z,73.62
2023-11-07T09:58:51.666Z,73.34
2023-11-07T09:59:55.512Z,71.87
2023-11-07T10:00:59.610Z,72.98
2023-11-07T10:02:01.147Z,73.04
2023-11-07T10:03:03.663Z,72.38
2023-11-07T10:04:05.618Z,72.59
2023-11-07T10:05:08.230Z,71.72
2023-11-07T10:06:09.951Z,72.40
2023-11-07T10:07:12.246Z,73.60
2023-11-07T10:08:13.874Z,70.97
2023-11-07T10:09:18.019Z,71.53
2023-11-07T10:10:19.950Z,73.30
2023-11-07T10:11:21.483Z,71.90
2023-11-07T10:12:23.020Z,70.47
2023-11-07T10:13:24.498Z,71.69
2023-11-07T10:14:27.367Z,71.93
2023-11-07T10:15:29.028Z,72.16
2023-11-07T10:16:42.506Z,70.91
2023-11-07T10:18:01.171Z,70.83
2023-11-07T10:19:05.788Z,70.26
2023-11-07T10:20:09.095Z,69.75
2023-11-07T10:21:10.697Z,71.54
2023-11-07T10:22:12.250Z,72.00
2023-11-07T10:23:13.975Z,70.32
2023-11-07T10:24:16.966Z,70.94
2023-11-07T10:25:29.308Z,68.97
2023-11-07T10:26:31.430Z,69.10
2023-11-07T10:27:32.905Z,69.68
2023-11-07T10:28:34.358Z,69.96
2023-11-07T10:29:40.397Z,71.88
2023-11-07T10:30:47.804Z,70.50
2023-11-07T10:32:10.334Z,69.03
2023-11-07T10:33:14.047Z,68.83
2023-11-07T10:34:20.681Z,69.16
2023-11-07T10:35:22.508Z,70.26
2023-11-07T10:36:24.168Z,69.81
2023-11-07T10:37:33.739Z,70.21
2023-11-07T10:38:39.550Z,71.87
2023-11-07T10:39:41.051Z,71.25
2023-11-07T10:40:42.577Z,70.69
2023-11-07T10:41:47.224Z,73.73
2023-11-07T10:42:50.336Z,71.05
2023-11-07T10:43:51.778Z,70.96
2023-11-07T10:45:01.366Z,70.29
2023-11-07T10:46:10.194Z,72.79
2023-11-07T10:47:12.167Z,70.35
2023-11-07T10:48:13.980Z,70.45
2023-11-07T10:49:16.561Z,70.06
2023-11-07T10:50:18.695Z,71.70
2023-11-07T10:51:20.872Z,71.67
2023-11-07T10:52:22.394Z,70.17
2023-11-07T10:53:23.875Z,70.05
2023-11-07T10:54:31.363Z,70.41
2023-11-07T10:55:32.852Z,69.36
2023-11-07T10:56:37.387Z,68.61
2023-11-07T10:57:47.436Z,69.78
2023-11-07T10:59:01.560Z,68.40
2023-11-07T11:00:12.162Z,70.66
2023-11-07T11:01:15.358Z,68.62
2023-11-07T11:02:20.222Z,69.25
2023-11-07T11:03:22.956Z,68.58
2023-11-07T11:04:28.814Z,68.68
2023-11-07T11:05:32.884Z,67.75
2023-11-07T11:06:34.678Z,70.88
2023-11-07T11:07:37.770Z,68.96
2023-11-07T11:08:40.100Z,66.89
2023-11-07T11:09:42.770Z,68.55
2023-11-07T11:10:44.520Z,66.98
2023-11-07T11:11:49.692Z,67.14
2023-11-07T11:12:51.820Z,68.14
2023-11-07T11:13:53.705Z,67.96
2023-11-07T11:14:55.138Z,67.79
2023-11-07T11:15:58.605Z,68.49
2023-11-07T11:17:25.551Z,67.63
2023-11-07T11:19:02.036Z,71.08
2023-11-07T11:20:11.772Z,69.08
2023-11-07T11:21:19.782Z,69.74
2023-11-07T11:22:35.927Z,66.82
2023-11-07T11:23:46.847Z,67.86
2023-11-07T11:24:48.283Z,67.09
2023-11-07T11:26:05.905Z,67.99
2023-11-07T11:27:25.758Z,66.90
2023-11-07T11:28:43.891Z,67.25
2023-11-07T11:29:50.231Z,66.61
2023-11-07T11:30:56.389Z,67.80
2023-11-07T11:31:58.520Z,68.29
2023-11-07T11:33:11.152Z,68.94
2023-11-07T11:34:33.201Z,71.06
2023-11-07T11:35:39.303Z,69.16
2023-11-07T11:36:45.407Z,67.75
2023-11-07T11:38:20.801Z,68.94
2023-11-07T11:39:31.727Z,68.22
2023-11-07T11:40:56.672Z,66.57
2023-11-07T11:42:00.126Z,66.54
2023-11-07T11:43:04.976Z,68.30
2023-11-07T11:44:16.483Z,66.18
2023-11-07T11:45:40.402Z,67.12
2023-11-07T11:46:47.943Z,67.54
2023-11-07T11:47:52.319Z,66.68
2023-11-07T11:49:08.906Z,67.37
2023-11-07T11:50:17.026Z,67.50
2023-11-07T11:51:38.541Z,67.76
2023-11-07T11:52:40.892Z,66.84
2023-11-07T11:53:47.835Z,66.37
2023-11-07T11:54:53.393Z,66.60
2023-11-07T11:56:00.755Z,67.13
2023-11-07T11:57:02.282Z,66.07
2023-11-07T11:58:17.840Z,67.01
2023-11-07T11:59:20.546Z,67.97
2023-11-07T12:00:22.668Z,68.15
2023-11-07T12:01:26.246Z,68.40
2023-11-07T12:02:41.086Z,67.93
2023-11-07T12:03:47.214Z,67.92
2023-11-07T12:04:52.095Z,69.19
2023-11-07T12:06:07.186Z,69.83
2023-11-07T12:07:10.088Z,67.78
2023-11-07T12:08:37.495Z,69.20
2023-11-07T12:09:48.742Z,69.18
2023-11-07T12:10:57.357Z,67.38
2023-11-07T12:11:58.942Z,69.54
2023-11-07T12:13:01.883Z,69.59
2023-11-07T12:14:03.671Z,69.60
2023-11-07T12:15:08.332Z,68.31
2023-11-07T12:16:20.981Z,67.69
2023-11-07T12:17:23.988Z,66.71
2023-11-07T12:18:39.726Z,67.90
2023-11-07T12:19:44.954Z,66.52
2023-11-07T12:20:46.878Z,68.20
2023-11-07T12:21:50.866Z,67.57
2023-11-07T12:22:52.496Z,66.33
2023-11-07T12:24:00.916Z,70.01
2023-11-07T12:25:17.809Z,67.79
2023-11-07T12:26:20.387Z,66.62
2023-11-07T12:27:21.880Z,67.91
2023-11-07T12:28:23.506Z,67.08
2023-11-07T12:29:36.504Z,68.52
2023-11-07T12:30:38.129Z,69.65
2023-11-07T12:31:40.695Z,66.98
2023-11-07T12:32:42.274Z,69.03
2023-11-07T12:33:44.368Z,67.17
2023-11-07T12:34:47.763Z,68.18
2023-11-07T12:35:56.196Z,65.87
2023-11-07T12:37:01.072Z,67.53
2023-11-07T12:38:07.293Z,65.75
2023-11-07T12:39:10.306Z,68.20
2023-11-07T12:40:13.498Z,65.89
2023-11-07T12:41:15.727Z,65.30
2023-11-07T12:42:17.377Z,65.15
2023-11-07T12:43:18.869Z,65.12
2023-11-07T12:44:24.101Z,64.71
2023-11-07T12:45:27.172Z,64.47
2023-11-07T12:46:32.024Z,64.39
2023-11-07T12:47:33.890Z,64.04
2023-11-07T12:48:37.602Z,64.74
2023-11-07T12:49:39.994Z,65.38
2023-11-07T12:50:47.895Z,66.81
2023-11-07T12:51:49.603Z,66.91
2023-11-07T12:53:03.637Z,67.01
2023-11-07T12:54:05.840Z,65.30
2023-11-07T12:55:18.317Z,65.93
2023-11-07T12:56:25.272Z,67.03
2023-11-07T12:57:37.736Z,66.27
2023-11-07T12:58:39.358Z,64.31
2023-11-07T12:59:57.452Z,63.82
2023-11-07T13:01:01.885Z,63.60
2023-11-07T13:02:04.688Z,64.33
2023-11-07T13:03:10.209Z,64.46
2023-11-07T13:04:19.350Z,63.67
2023-11-07T13:05:21.137Z,63.34
2023-11-07T13:06:22.737Z,64.20
2023-11-07T13:07:28.464Z,62.42
2023-11-07T13:08:31.224Z,62.07
2023-11-07T13:09:36.128Z,64.12
2023-11-07T13:10:37.616Z,61.31
2023-11-07T13:11:40.808Z,62.48
2023-11-07T13:12:45.984Z,64.50
2023-11-07T13:13:47.945Z,63.37
2023-11-07T13:14:50.427Z,64.26
2023-11-07T13:15:52.124Z,63.48
2023-11-07T13:16:54.304Z,62.19
2023-11-07T13:18:00.090Z,62.59
2023-11-07T13:19:01.846Z,62.87
2023-11-07T13:20:09.475Z,64.17
2023-11-07T13:21:11.107Z,63.48
2023-11-07T13:22:18.621Z,64.23
2023-11-07T13:23:20.072Z,66.21
2023-11-07T13:24:21.820Z,65.75
2023-11-07T13:25:23.630Z,66.28
2023-11-07T13:26:25.225Z,65.41
2023-11-07T13:27:26.801Z,65.12
2023-11-07T13:28:29.245Z,66.64